sensor_id;sensor_type;location;lat;lon;timestamp;pressure;altitude;pressure_sealevel;temperature;humidity
68456;BME280;55437;55.046;38.838;2024-01-15T00:00:19;98194.31;;;-6.43;61.70
68456;BME280;55437;55.046;38.838;2024-01-15T00:02:45;98194.34;;;-6.37;62.13
68456;BME280;55437;55.046;38.838;2024-01-15T00:05:11;98197.75;;;-6.30;62.18
68456;BME280;55437;55.046;38.838;2024-01-15T00:07:36;98205.25;;;-6.30;61.77
68456;BME280;55437;55.046;38.838;2024-01-15T00:10:03;98196.94;;;-6.29;61.84
68456;BME280;55437;55.046;38.838;2024-01-15T00:12:29;98198.59;;;-6.30;61.81
68456;BME280;55437;55.046;38.838;2024-01-15T00:14:55;98186.13;;;-6.24;61.86
68456;BME280;55437;55.046;38.838;2024-01-15T00:17:21;98197.88;;;-6.16;62.00
68456;BME280;55437;55.046;38.838;2024-01-15T00:19:47;98201.22;;;-6.11;62.15
68456;BME280;55437;55.046;38.838;2024-01-15T00:22:13;98187.13;;;-6.05;61.77
68456;BME280;55437;55.046;38.838;2024-01-15T00:24:39;98192.91;;;-6.10;62.43
68456;BME280;55437;55.046;38.838;2024-01-15T00:27:08;98197.09;;;-6.08;62.15
68456;BME280;55437;55.046;38.838;2024-01-15T00:29:34;98187.88;;;-6.16;62.30
68456;BME280;55437;55.046;38.838;2024-01-15T00:32:00;98178.78;;;-6.07;62.32
68456;BME280;55437;55.046;38.838;2024-01-15T00:34:26;98183.81;;;-6.04;62.49
68456;BME280;55437;55.046;38.838;2024-01-15T00:36:52;98177.16;;;-5.97;62.46
68456;BME280;55437;55.046;38.838;2024-01-15T00:39:18;98174.69;;;-5.94;62.47
68456;BME280;55437;55.046;38.838;2024-01-15T00:41:44;98167.22;;;-5.94;62.33
68456;BME280;55437;55.046;38.838;2024-01-15T00:44:10;98173.88;;;-5.89;62.09
68456;BME280;55437;55.046;38.838;2024-01-15T00:46:45;98170.59;;;-5.78;61.93
68456;BME280;55437;55.046;38.838;2024-01-15T00:49:15;98168.91;;;-5.80;62.04
68456;BME280;55437;55.046;38.838;2024-01-15T00:51:41;98171.41;;;-5.83;61.94
68456;BME280;55437;55.046;38.838;2024-01-15T00:54:07;98160.56;;;-5.83;61.96
68456;BME280;55437;55.046;38.838;2024-01-15T00:56:33;98166.41;;;-5.80;61.66
68456;BME280;55437;55.046;38.838;2024-01-15T00:59:00;98162.22;;;-5.90;62.26
68456;BME280;55437;55.046;38.838;2024-01-15T01:01:26;98159.72;;;-5.88;62.50
68456;BME280;55437;55.046;38.838;2024-01-15T01:03:53;98164.75;;;-5.79;62.41
68456;BME280;55437;55.046;38.838;2024-01-15T01:06:19;98163.16;;;-5.68;62.13
68456;BME280;55437;55.046;38.838;2024-01-15T01:08:45;98170.75;;;-5.56;62.03
68456;BME280;55437;55.046;38.838;2024-01-15T01:11:15;98166.56;;;-5.52;61.85
68456;BME280;55437;55.046;38.838;2024-01-15T01:13:41;98166.56;;;-5.51;62.23
68456;BME280;55437;55.046;38.838;2024-01-15T01:16:07;98153.28;;;-5.42;61.67
68456;BME280;55437;55.046;38.838;2024-01-15T01:18:34;98155.75;;;-5.50;61.88
68456;BME280;55437;55.046;38.838;2024-01-15T01:21:01;98154.94;;;-5.47;62.03
68456;BME280;55437;55.046;38.838;2024-01-15T01:23:27;98142.44;;;-5.47;62.21
68456;BME280;55437;55.046;38.838;2024-01-15T01:25:53;98134.91;;;-5.52;62.30
68456;BME280;55437;55.046;38.838;2024-01-15T01:28:19;98129.09;;;-5.48;62.45
68456;BME280;55437;55.046;38.838;2024-01-15T01:30:45;98129.13;;;-5.35;62.06
68456;BME280;55437;55.046;38.838;2024-01-15T01:33:10;98129.97;;;-5.33;61.72
68456;BME280;55437;55.046;38.838;2024-01-15T01:35:36;98125.81;;;-5.28;61.89
68456;BME280;55437;55.046;38.838;2024-01-15T01:38:02;98128.31;;;-5.28;61.81
68456;BME280;55437;55.046;38.838;2024-01-15T01:40:28;98130.81;;;-5.27;62.22
68456;BME280;55437;55.046;38.838;2024-01-15T01:42:56;98116.66;;;-5.19;62.18
68456;BME280;55437;55.046;38.838;2024-01-15T01:45:22;98120.00;;;-5.18;61.93
68456;BME280;55437;55.046;38.838;2024-01-15T01:47:48;98123.34;;;-5.18;62.38
68456;BME280;55437;55.046;38.838;2024-01-15T01:50:14;98120.88;;;-5.05;62.03
68456;BME280;55437;55.046;38.838;2024-01-15T01:52:41;98119.22;;;-5.05;62.15
68456;BME280;55437;55.046;38.838;2024-01-15T01:55:07;98112.56;;;-4.98;62.20
68456;BME280;55437;55.046;38.838;2024-01-15T01:57:35;98111.72;;;-4.94;62.24
68456;BME280;55437;55.046;38.838;2024-01-15T02:00:03;98094.19;;;-5.00;62.32
68456;BME280;55437;55.046;38.838;2024-01-15T02:02:38;98095.03;;;-4.91;62.22
68456;BME280;55437;55.046;38.838;2024-01-15T02:05:04;98095.91;;;-4.87;62.05
68456;BME280;55437;55.046;38.838;2024-01-15T02:07:34;98090.88;;;-4.78;61.82
68456;BME280;55437;55.046;38.838;2024-01-15T02:10:00;98085.03;;;-4.82;62.13
68456;BME280;55437;55.046;38.838;2024-01-15T02:12:26;98091.72;;;-4.82;62.01
68456;BME280;55437;55.046;38.838;2024-01-15T02:14:52;98095.91;;;-4.75;62.20
68456;BME280;55437;55.046;38.838;2024-01-15T02:17:18;98097.56;;;-4.69;61.91
68456;BME280;55437;55.046;38.838;2024-01-15T02:19:45;98090.06;;;-4.62;62.08
68456;BME280;55437;55.046;38.838;2024-01-15T02:22:10;98090.88;;;-4.55;61.70
68456;BME280;55437;55.046;38.838;2024-01-15T02:24:36;98092.59;;;-4.59;61.40
68456;BME280;55437;55.046;38.838;2024-01-15T02:27:02;98087.56;;;-4.53;61.77
68456;BME280;55437;55.046;38.838;2024-01-15T02:29:28;98091.72;;;-4.44;61.56
68456;BME280;55437;55.046;38.838;2024-01-15T02:31:55;98089.22;;;-4.32;61.24
68456;BME280;55437;55.046;38.838;2024-01-15T02:34:21;98095.06;;;-4.25;61.26
68456;BME280;55437;55.046;38.838;2024-01-15T02:36:47;98085.03;;;-4.27;61.57
68456;BME280;55437;55.046;38.838;2024-01-15T02:39:13;98080.88;;;-4.26;61.40
68456;BME280;55437;55.046;38.838;2024-01-15T02:41:39;98080.88;;;-4.36;61.86
68456;BME280;55437;55.046;38.838;2024-01-15T02:44:04;98086.72;;;-4.38;61.41
68456;BME280;55437;55.046;38.838;2024-01-15T02:46:30;98099.25;;;-4.37;61.66
68456;BME280;55437;55.046;38.838;2024-01-15T02:48:56;98088.38;;;-4.28;61.62
68456;BME280;55437;55.046;38.838;2024-01-15T02:51:22;98090.03;;;-4.28;61.65
68456;BME280;55437;55.046;38.838;2024-01-15T02:53:49;98094.19;;;-4.18;61.27
68456;BME280;55437;55.046;38.838;2024-01-15T02:56:16;98083.34;;;-4.20;61.38
68456;BME280;55437;55.046;38.838;2024-01-15T02:58:42;98079.19;;;-4.26;61.02
68456;BME280;55437;55.046;38.838;2024-01-15T03:01:08;98084.19;;;-4.30;61.02
68456;BME280;55437;55.046;38.838;2024-01-15T03:03:34;98080.88;;;-4.46;61.60
68456;BME280;55437;55.046;38.838;2024-01-15T03:06:01;98082.56;;;-4.50;61.69
68456;BME280;55437;55.046;38.838;2024-01-15T03:08:27;98080.88;;;-4.54;62.10
68456;BME280;55437;55.046;38.838;2024-01-15T03:10:54;98070.84;;;-4.58;62.17
68456;BME280;55437;55.046;38.838;2024-01-15T03:13:21;98077.53;;;-4.51;61.94
68456;BME280;55437;55.046;38.838;2024-01-15T03:15:47;98075.03;;;-4.45;61.88
68456;BME280;55437;55.046;38.838;2024-01-15T03:18:13;98073.34;;;-4.40;62.21
68456;BME280;55437;55.046;38.838;2024-01-15T03:20:39;98067.50;;;-4.42;62.13
68456;BME280;55437;55.046;38.838;2024-01-15T03:23:05;98069.19;;;-4.37;62.34
68456;BME280;55437;55.046;38.838;2024-01-15T03:25:31;98068.34;;;-4.28;62.26
68456;BME280;55437;55.046;38.838;2024-01-15T03:27:56;98066.66;;;-4.26;62.15
68456;BME280;55437;55.046;38.838;2024-01-15T03:30:22;98060.78;;;-4.22;62.80
68456;BME280;55437;55.046;38.838;2024-01-15T03:32:48;98070.81;;;-4.13;62.61
68456;BME280;55437;55.046;38.838;2024-01-15T03:35:15;98070.81;;;-4.17;62.68
68456;BME280;55437;55.046;38.838;2024-01-15T03:37:42;98057.44;;;-4.10;62.36
68456;BME280;55437;55.046;38.838;2024-01-15T03:40:08;98064.97;;;-4.13;62.46
68456;BME280;55437;55.046;38.838;2024-01-15T03:42:34;98057.44;;;-4.09;62.54
68456;BME280;55437;55.046;38.838;2024-01-15T03:45:00;98053.28;;;-4.11;62.64
68456;BME280;55437;55.046;38.838;2024-01-15T03:47:26;98055.75;;;-4.07;62.52
68456;BME280;55437;55.046;38.838;2024-01-15T03:49:52;98055.75;;;-4.07;62.59
68456;BME280;55437;55.046;38.838;2024-01-15T03:52:18;98054.09;;;-4.02;62.75
68456;BME280;55437;55.046;38.838;2024-01-15T03:54:44;98048.19;;;-3.97;62.51
68456;BME280;55437;55.046;38.838;2024-01-15T03:57:09;98051.56;;;-4.02;62.68
68456;BME280;55437;55.046;38.838;2024-01-15T03:59:35;98051.53;;;-3.94;62.55
68456;BME280;55437;55.046;38.838;2024-01-15T04:02:01;98043.19;;;-3.93;62.46
68456;BME280;55437;55.046;38.838;2024-01-15T04:04:27;98052.38;;;-3.89;62.45
68456;BME280;55437;55.046;38.838;2024-01-15T04:06:55;98039.84;;;-3.93;62.31
68456;BME280;55437;55.046;38.838;2024-01-15T04:09:21;98035.66;;;-3.87;62.51
68456;BME280;55437;55.046;38.838;2024-01-15T04:11:47;98045.69;;;-3.90;62.82
68456;BME280;55437;55.046;38.838;2024-01-15T04:14:13;98039.00;;;-3.94;62.74
68456;BME280;55437;55.046;38.838;2024-01-15T04:16:39;98052.38;;;-3.92;62.77
68456;BME280;55437;55.046;38.838;2024-01-15T04:19:05;98041.50;;;-3.92;63.23
68456;BME280;55437;55.046;38.838;2024-01-15T04:21:31;98049.03;;;-3.91;62.75
68456;BME280;55437;55.046;38.838;2024-01-15T04:23:57;98051.50;;;-3.76;62.80
68456;BME280;55437;55.046;38.838;2024-01-15T04:26:23;98056.47;;;-3.73;62.75
68456;BME280;55437;55.046;38.838;2024-01-15T04:28:51;98051.44;;;-3.67;62.56
68456;BME280;55437;55.046;38.838;2024-01-15T04:31:22;98040.59;;;-3.69;62.56
68456;BME280;55437;55.046;38.838;2024-01-15T04:33:48;98042.31;;;-3.80;62.68
68456;BME280;55437;55.046;38.838;2024-01-15T04:36:14;98052.34;;;-3.86;63.14
68456;BME280;55437;55.046;38.838;2024-01-15T04:38:40;98038.97;;;-3.83;63.15
68456;BME280;55437;55.046;38.838;2024-01-15T04:41:06;98038.13;;;-3.81;63.20
68456;BME280;55437;55.046;38.838;2024-01-15T04:43:32;98035.63;;;-3.82;62.88
68456;BME280;55437;55.046;38.838;2024-01-15T04:45:58;98043.16;;;-3.84;63.13
68456;BME280;55437;55.046;38.838;2024-01-15T04:48:24;98040.63;;;-3.79;63.17
68456;BME280;55437;55.046;38.838;2024-01-15T04:50:54;98040.63;;;-3.85;63.21
68456;BME280;55437;55.046;38.838;2024-01-15T04:53:20;98040.63;;;-3.81;63.18
68456;BME280;55437;55.046;38.838;2024-01-15T04:55:46;98047.28;;;-3.71;63.18
68456;BME280;55437;55.046;38.838;2024-01-15T04:58:11;98036.41;;;-3.73;63.14
68456;BME280;55437;55.046;38.838;2024-01-15T05:00:38;98043.09;;;-3.64;63.08
68456;BME280;55437;55.046;38.838;2024-01-15T05:03:04;98048.06;;;-3.61;62.59
68456;BME280;55437;55.046;38.838;2024-01-15T05:05:30;98048.06;;;-3.61;63.07
68456;BME280;55437;55.046;38.838;2024-01-15T05:07:56;98038.91;;;-3.70;63.16
68456;BME280;55437;55.046;38.838;2024-01-15T05:10:23;98038.06;;;-3.66;63.05
68456;BME280;55437;55.046;38.838;2024-01-15T05:12:49;98040.53;;;-3.59;62.96
68456;BME280;55437;55.046;38.838;2024-01-15T05:15:15;98043.91;;;-3.64;63.26
68456;BME280;55437;55.046;38.838;2024-01-15T05:17:40;98054.72;;;-3.52;62.98
68456;BME280;55437;55.046;38.838;2024-01-15T05:20:07;98048.09;;;-3.64;63.19
68456;BME280;55437;55.046;38.838;2024-01-15T05:22:34;98043.09;;;-3.69;63.47
68456;BME280;55437;55.046;38.838;2024-01-15T05:24:59;98036.34;;;-3.59;63.30
68456;BME280;55437;55.046;38.838;2024-01-15T05:27:25;98040.56;;;-3.63;63.26
68456;BME280;55437;55.046;38.838;2024-01-15T05:29:52;98035.56;;;-3.69;63.41
68456;BME280;55437;55.046;38.838;2024-01-15T05:32:18;98036.41;;;-3.68;63.52
68456;BME280;55437;55.046;38.838;2024-01-15T05:34:43;98034.69;;;-3.62;63.24
68456;BME280;55437;55.046;38.838;2024-01-15T05:37:09;98033.00;;;-3.58;63.50
68456;BME280;55437;55.046;38.838;2024-01-15T05:39:35;98041.38;;;-3.60;63.60
68456;BME280;55437;55.046;38.838;2024-01-15T05:42:01;98033.00;;;-3.55;63.55
68456;BME280;55437;55.046;38.838;2024-01-15T05:44:27;98038.03;;;-3.56;63.51
68456;BME280;55437;55.046;38.838;2024-01-15T05:46:53;98039.69;;;-3.52;63.65
68456;BME280;55437;55.046;38.838;2024-01-15T05:49:19;98038.81;;;-3.48;63.49
68456;BME280;55437;55.046;38.838;2024-01-15T05:51:45;98048.81;;;-3.42;63.44
68456;BME280;55437;55.046;38.838;2024-01-15T05:54:10;98039.66;;;-3.49;63.14
68456;BME280;55437;55.046;38.838;2024-01-15T05:56:36;98048.06;;;-3.59;63.64
68456;BME280;55437;55.046;38.838;2024-01-15T05:59:03;98042.25;;;-3.66;64.27
68456;BME280;55437;55.046;38.838;2024-01-15T06:01:29;98043.94;;;-3.70;64.30
68456;BME280;55437;55.046;38.838;2024-01-15T06:03:55;98053.13;;;-3.66;63.92
68456;BME280;55437;55.046;38.838;2024-01-15T06:06:21;98040.53;;;-3.58;63.79
68456;BME280;55437;55.046;38.838;2024-01-15T06:08:47;98046.38;;;-3.60;64.10
68456;BME280;55437;55.046;38.838;2024-01-15T06:11:13;98029.72;;;-3.63;63.81
68456;BME280;55437;55.046;38.838;2024-01-15T06:13:40;98046.38;;;-3.56;64.00
68456;BME280;55437;55.046;38.838;2024-01-15T06:16:15;98041.31;;;-3.48;63.94
68456;BME280;55437;55.046;38.838;2024-01-15T06:18:45;98037.97;;;-3.44;63.90
68456;BME280;55437;55.046;38.838;2024-01-15T06:21:11;98030.44;;;-3.43;63.78
68456;BME280;55437;55.046;38.838;2024-01-15T06:23:40;98035.44;;;-3.41;63.80
68456;BME280;55437;55.046;38.838;2024-01-15T06:26:06;98039.63;;;-3.39;64.08
68456;BME280;55437;55.046;38.838;2024-01-15T06:28:32;98036.22;;;-3.29;64.27
68456;BME280;55437;55.046;38.838;2024-01-15T06:30:57;98039.56;;;-3.28;64.02
68456;BME280;55437;55.046;38.838;2024-01-15T06:33:24;98041.22;;;-3.27;63.77
68456;BME280;55437;55.046;38.838;2024-01-15T06:35:50;98039.50;;;-3.19;63.60
68456;BME280;55437;55.046;38.838;2024-01-15T06:38:17;98041.16;;;-3.21;63.97
68456;BME280;55437;55.046;38.838;2024-01-15T06:40:43;98029.41;;;-3.13;63.66
68456;BME280;55437;55.046;38.838;2024-01-15T06:43:13;98031.03;;;-3.04;63.71
68456;BME280;55437;55.046;38.838;2024-01-15T06:45:39;98045.16;;;-2.91;63.41
68456;BME280;55437;55.046;38.838;2024-01-15T06:48:06;98046.00;;;-2.91;63.47
68456;BME280;55437;55.046;38.838;2024-01-15T06:50:33;98041.00;;;-2.92;63.59
68456;BME280;55437;55.046;38.838;2024-01-15T06:52:59;98035.06;;;-2.86;63.32
68456;BME280;55437;55.046;38.838;2024-01-15T06:55:25;98045.09;;;-2.79;62.93
68456;BME280;55437;55.046;38.838;2024-01-15T06:57:51;98032.44;;;-2.70;62.63
68456;BME280;55437;55.046;38.838;2024-01-15T07:00:18;98044.94;;;-2.65;62.56
68456;BME280;55437;55.046;38.838;2024-01-15T07:02:46;98047.53;;;-2.71;62.92
68456;BME280;55437;55.046;38.838;2024-01-15T07:05:11;98045.00;;;-2.68;62.98
68456;BME280;55437;55.046;38.838;2024-01-15T07:07:37;98049.19;;;-2.73;62.46
68456;BME280;55437;55.046;38.838;2024-01-15T07:10:04;98048.25;;;-2.60;62.44
68456;BME280;55437;55.046;38.838;2024-01-15T07:12:31;98048.97;;;-2.46;62.34
68456;BME280;55437;55.046;38.838;2024-01-15T07:14:58;98041.38;;;-2.38;62.46
68456;BME280;55437;55.046;38.838;2024-01-15T07:17:24;98043.97;;;-2.47;61.79
68456;BME280;55437;55.046;38.838;2024-01-15T07:19:50;98046.50;;;-2.54;62.07
68456;BME280;55437;55.046;38.838;2024-01-15T07:22:16;98053.19;;;-2.48;62.08
68456;BME280;55437;55.046;38.838;2024-01-15T07:24:43;98042.31;;;-2.50;61.77
68456;BME280;55437;55.046;38.838;2024-01-15T07:27:09;98050.69;;;-2.51;62.14
68456;BME280;55437;55.046;38.838;2024-01-15T07:29:35;98045.66;;;-2.49;61.91
68456;BME280;55437;55.046;38.838;2024-01-15T07:32:04;98041.34;;;-2.35;61.77
68456;BME280;55437;55.046;38.838;2024-01-15T07:34:30;98059.66;;;-2.24;61.59
68456;BME280;55437;55.046;38.838;2024-01-15T07:36:57;98042.91;;;-2.24;61.50
68456;BME280;55437;55.046;38.838;2024-01-15T07:39:23;98045.38;;;-2.19;61.24
68456;BME280;55437;55.046;38.838;2024-01-15T07:41:51;98042.72;;;-2.05;61.09
68456;BME280;55437;55.046;38.838;2024-01-15T07:44:19;98037.59;;;-1.98;60.98
68456;BME280;55437;55.046;38.838;2024-01-15T07:46:47;98050.06;;;-1.87;60.22
68456;BME280;55437;55.046;38.838;2024-01-15T07:49:13;98039.00;;;-1.74;59.89
68456;BME280;55437;55.046;38.838;2024-01-15T07:51:39;98045.56;;;-1.61;59.72
68456;BME280;55437;55.046;38.838;2024-01-15T07:54:09;98050.66;;;-1.67;59.61
68456;BME280;55437;55.046;38.838;2024-01-15T07:56:59;98042.34;;;-1.72;59.83
68456;BME280;55437;55.046;38.838;2024-01-15T07:59:26;98047.28;;;-1.64;59.97
68456;BME280;55437;55.046;38.838;2024-01-15T08:01:53;98048.97;;;-1.65;59.60
68456;BME280;55437;55.046;38.838;2024-01-15T08:04:19;98041.41;;;-1.63;59.90
68456;BME280;55437;55.046;38.838;2024-01-15T08:06:46;98035.47;;;-1.58;59.79
68456;BME280;55437;55.046;38.838;2024-01-15T08:09:13;98047.16;;;-1.57;59.80
68456;BME280;55437;55.046;38.838;2024-01-15T08:11:44;98051.47;;;-1.65;59.81
68456;BME280;55437;55.046;38.838;2024-01-15T08:14:11;98049.09;;;-1.77;59.48
68456;BME280;55437;55.046;38.838;2024-01-15T08:16:38;98045.72;;;-1.73;59.93
68456;BME280;55437;55.046;38.838;2024-01-15T08:19:07;98050.63;;;-1.65;60.02
68456;BME280;55437;55.046;38.838;2024-01-15T08:21:33;98058.84;;;-1.51;59.57
68456;BME280;55437;55.046;38.838;2024-01-15T08:24:00;98057.09;;;-1.45;59.12
68456;BME280;55437;55.046;38.838;2024-01-15T08:26:26;98042.88;;;-1.47;59.73
68456;BME280;55437;55.046;38.838;2024-01-15T08:28:52;98050.34;;;-1.42;59.49
68456;BME280;55437;55.046;38.838;2024-01-15T08:31:18;98055.31;;;-1.36;59.51
68456;BME280;55437;55.046;38.838;2024-01-15T08:33:45;98060.97;;;-1.21;59.15
68456;BME280;55437;55.046;38.838;2024-01-15T08:36:12;98049.13;;;-1.13;59.07
68456;BME280;55437;55.046;38.838;2024-01-15T08:38:38;98052.34;;;-1.03;58.90
68456;BME280;55437;55.046;38.838;2024-01-15T08:41:04;98043.16;;;-1.09;58.62
68456;BME280;55437;55.046;38.838;2024-01-15T08:43:30;98054.88;;;-1.04;58.73
68456;BME280;55437;55.046;38.838;2024-01-15T08:45:57;98052.19;;;-0.94;59.00
68456;BME280;55437;55.046;38.838;2024-01-15T08:48:25;98053.66;;;-0.79;58.60
68456;BME280;55437;55.046;38.838;2024-01-15T08:50:54;98053.50;;;-0.70;58.07
68456;BME280;55437;55.046;38.838;2024-01-15T08:53:20;98043.44;;;-0.72;58.35
68456;BME280;55437;55.046;38.838;2024-01-15T08:55:47;98054.34;;;-0.69;58.06
68456;BME280;55437;55.046;38.838;2024-01-15T08:58:14;98049.84;;;-0.51;57.96
68456;BME280;55437;55.046;38.838;2024-01-15T09:00:40;98046.28;;;-0.39;57.54
68456;BME280;55437;55.046;38.838;2024-01-15T09:03:06;98036.28;;;-0.44;57.44
68456;BME280;55437;55.046;38.838;2024-01-15T09:05:34;98043.78;;;-0.41;57.66
68456;BME280;55437;55.046;38.838;2024-01-15T09:08:01;98041.09;;;-0.31;57.59
68456;BME280;55437;55.046;38.838;2024-01-15T09:10:27;98042.75;;;-0.29;57.38
68456;BME280;55437;55.046;38.838;2024-01-15T09:12:53;98049.34;;;-0.22;57.09
68456;BME280;55437;55.046;38.838;2024-01-15T09:15:19;98047.75;;;-0.26;57.28
68456;BME280;55437;55.046;38.838;2024-01-15T09:17:45;98043.47;;;-0.22;57.03
68456;BME280;55437;55.046;38.838;2024-01-15T09:20:11;98038.50;;;-0.25;57.50
68456;BME280;55437;55.046;38.838;2024-01-15T09:22:38;98032.66;;;-0.29;57.47
68456;BME280;55437;55.046;38.838;2024-01-15T09:25:07;98032.72;;;-0.33;57.72
68456;BME280;55437;55.046;38.838;2024-01-15T09:27:34;98038.72;;;-0.39;57.87
68456;BME280;55437;55.046;38.838;2024-01-15T09:30:02;98033.59;;;-0.36;57.90
68456;BME280;55437;55.046;38.838;2024-01-15T09:32:30;98042.78;;;-0.30;57.87
68456;BME280;55437;55.046;38.838;2024-01-15T09:34:59;98034.31;;;-0.26;57.94
68456;BME280;55437;55.046;38.838;2024-01-15T09:37:25;98026.00;;;-0.33;58.19
68456;BME280;55437;55.046;38.838;2024-01-15T09:39:51;98035.13;;;-0.26;58.14
68456;BME280;55437;55.046;38.838;2024-01-15T09:42:17;98034.63;;;-0.46;58.26
68456;BME280;55437;55.046;38.838;2024-01-15T09:44:44;98037.09;;;-0.43;58.23
68456;BME280;55437;55.046;38.838;2024-01-15T09:47:12;98028.50;;;-0.31;58.29
68456;BME280;55437;55.046;38.838;2024-01-15T09:49:38;98038.41;;;-0.21;57.91
68456;BME280;55437;55.046;38.838;2024-01-15T09:52:07;98038.44;;;-0.24;57.94
68456;BME280;55437;55.046;38.838;2024-01-15T09:54:34;98043.34;;;-0.15;57.73
68456;BME280;55437;55.046;38.838;2024-01-15T09:57:01;98037.41;;;-0.12;57.74
68456;BME280;55437;55.046;38.838;2024-01-15T09:59:28;98045.75;;;-0.09;57.56
68456;BME280;55437;55.046;38.838;2024-01-15T10:01:55;98047.38;;;-0.06;57.51
68456;BME280;55437;55.046;38.838;2024-01-15T10:04:22;98039.25;;;-0.22;57.51
68456;BME280;55437;55.046;38.838;2024-01-15T10:06:51;98037.09;;;-0.43;58.03
68456;BME280;55437;55.046;38.838;2024-01-15T10:09:17;98039.50;;;-0.36;58.15
68456;BME280;55437;55.046;38.838;2024-01-15T10:11:44;98036.09;;;-0.33;58.00
68456;BME280;55437;55.046;38.838;2024-01-15T10:14:12;98035.22;;;-0.32;57.78
68456;BME280;55437;55.046;38.838;2024-01-15T10:16:40;98035.91;;;-0.24;57.80
68456;BME280;55437;55.046;38.838;2024-01-15T10:19:07;98035.28;;;-0.35;57.82
68456;BME280;55437;55.046;38.838;2024-01-15T10:21:33;98032.72;;;-0.32;57.82
68456;BME280;55437;55.046;38.838;2024-01-15T10:24:04;98041.69;;;-0.16;57.67
68456;BME280;55437;55.046;38.838;2024-01-15T10:26:32;98043.00;;;0.02;57.24
68456;BME280;55437;55.046;38.838;2024-01-15T10:28:58;98042.09;;;0.06;57.09
68456;BME280;55437;55.046;38.838;2024-01-15T10:31:27;98036.47;;;-0.08;57.36
68456;BME280;55437;55.046;38.838;2024-01-15T10:34:10;98029.91;;;-0.15;57.60
68456;BME280;55437;55.046;38.838;2024-01-15T10:36:39;98033.31;;;-0.19;57.59
68456;BME280;55437;55.046;38.838;2024-01-15T10:39:06;98028.31;;;-0.22;57.62
68456;BME280;55437;55.046;38.838;2024-01-15T10:41:33;98029.31;;;-0.29;57.47
68456;BME280;55437;55.046;38.838;2024-01-15T10:43:59;98031.06;;;-0.34;58.08
68456;BME280;55437;55.046;38.838;2024-01-15T10:46:25;98025.97;;;-0.30;57.91
68456;BME280;55437;55.046;38.838;2024-01-15T10:48:52;98027.66;;;-0.30;57.95
68456;BME280;55437;55.046;38.838;2024-01-15T10:51:19;98013.66;;;-0.48;58.46
68456;BME280;55437;55.046;38.838;2024-01-15T10:53:45;98016.94;;;-0.43;58.40
68456;BME280;55437;55.046;38.838;2024-01-15T10:56:12;98022.97;;;-0.52;58.29
68456;BME280;55437;55.046;38.838;2024-01-15T10:58:41;98013.81;;;-0.57;58.33
68456;BME280;55437;55.046;38.838;2024-01-15T11:01:08;98014.63;;;-0.55;58.59
68456;BME280;55437;55.046;38.838;2024-01-15T11:03:34;98012.16;;;-0.58;58.63
68456;BME280;55437;55.046;38.838;2024-01-15T11:06:00;98009.72;;;-0.61;58.62
68456;BME280;55437;55.046;38.838;2024-01-15T11:08:26;98016.34;;;-0.59;58.73
68456;BME280;55437;55.046;38.838;2024-01-15T11:10:52;98018.84;;;-0.56;58.42
68456;BME280;55437;55.046;38.838;2024-01-15T11:13:21;98019.47;;;-0.43;58.32
68456;BME280;55437;55.046;38.838;2024-01-15T11:16:05;98020.31;;;-0.44;58.36
68456;BME280;55437;55.046;38.838;2024-01-15T11:29:05;98009.53;;;-0.05;57.76
68456;BME280;55437;55.046;38.838;2024-01-15T11:34:07;98006.00;;;0.03;58.01
68456;BME280;55437;55.046;38.838;2024-01-15T11:42:05;97999.16;;;-0.36;58.92
68456;BME280;55437;55.046;38.838;2024-01-15T11:44:31;97997.59;;;-0.43;59.14
68456;BME280;55437;55.046;38.838;2024-01-15T11:47:08;98007.84;;;-0.50;59.09
68456;BME280;55437;55.046;38.838;2024-01-15T11:52:35;98009.84;;;-0.70;59.83
68456;BME280;55437;55.046;38.838;2024-01-15T11:55:05;98002.44;;;-0.80;60.33
68456;BME280;55437;55.046;38.838;2024-01-15T11:57:41;98001.59;;;-0.80;60.27
68456;BME280;55437;55.046;38.838;2024-01-15T12:00:13;98019.22;;;-0.79;60.03
68456;BME280;55437;55.046;38.838;2024-01-15T12:02:40;98019.19;;;-0.77;60.04
68456;BME280;55437;55.046;38.838;2024-01-15T12:05:11;98018.22;;;-0.68;60.31
68456;BME280;55437;55.046;38.838;2024-01-15T12:07:41;98013.22;;;-0.72;60.17
68456;BME280;55437;55.046;38.838;2024-01-15T12:10:20;98009.91;;;-0.74;60.29
68456;BME280;55437;55.046;38.838;2024-01-15T12:15:20;98001.63;;;-0.83;60.84
68456;BME280;55437;55.046;38.838;2024-01-15T12:17:46;98007.66;;;-0.90;60.93
68456;BME280;55437;55.046;38.838;2024-01-15T12:20:14;98007.63;;;-0.89;61.15
68456;BME280;55437;55.046;38.838;2024-01-15T12:22:42;98013.38;;;-0.81;61.03
68456;BME280;55437;55.046;38.838;2024-01-15T12:25:09;98001.56;;;-0.79;60.92
68456;BME280;55437;55.046;38.838;2024-01-15T12:27:35;98005.00;;;-0.84;61.09
68456;BME280;55437;55.046;38.838;2024-01-15T12:30:02;98022.63;;;-0.83;61.39
68456;BME280;55437;55.046;38.838;2024-01-15T12:32:31;98016.88;;;-0.89;61.78
68456;BME280;55437;55.046;38.838;2024-01-15T12:34:57;98010.19;;;-0.92;61.50
68456;BME280;55437;55.046;38.838;2024-01-15T12:37:24;98011.88;;;-0.92;61.56
68456;BME280;55437;55.046;38.838;2024-01-15T12:39:51;98008.56;;;-0.96;61.46
68456;BME280;55437;55.046;38.838;2024-01-15T12:42:17;98010.25;;;-0.96;61.38
68456;BME280;55437;55.046;38.838;2024-01-15T12:44:46;98004.41;;;-0.97;61.68
68456;BME280;55437;55.046;38.838;2024-01-15T12:47:12;98019.53;;;-0.98;61.88
68456;BME280;55437;55.046;38.838;2024-01-15T12:49:39;98017.94;;;-1.04;61.86
68456;BME280;55437;55.046;38.838;2024-01-15T12:52:09;98019.50;;;-0.97;62.00
68456;BME280;55437;55.046;38.838;2024-01-15T12:54:35;98011.97;;;-0.98;62.20
68456;BME280;55437;55.046;38.838;2024-01-15T12:57:02;98012.88;;;-1.04;62.39
68456;BME280;55437;55.046;38.838;2024-01-15T12:59:28;98023.78;;;-1.02;62.25
68456;BME280;55437;55.046;38.838;2024-01-15T13:01:55;98024.63;;;-1.03;62.44
68456;BME280;55437;55.046;38.838;2024-01-15T13:04:23;98023.75;;;-1.00;62.32
68456;BME280;55437;55.046;38.838;2024-01-15T13:06:50;98032.13;;;-0.98;62.49
68456;BME280;55437;55.046;38.838;2024-01-15T13:09:17;98026.41;;;-1.10;62.52
68456;BME280;55437;55.046;38.838;2024-01-15T13:11:46;98025.53;;;-1.09;62.74